sensor_id;sensor_type;location;lat;lon;timestamp;temperature;humidity
72905;DHT22;61048;52.162;4.516;2023-05-02T06:37:33;19.10;55.10
72905;DHT22;61048;52.162;4.516;2023-05-02T06:40:01;18.70;56.00
72905;DHT22;61048;52.162;4.516;2023-05-02T06:42:28;18.80;55.70
72905;DHT22;61048;52.162;4.516;2023-05-02T06:44:55;18.80;55.70
72905;DHT22;61048;52.162;4.516;2023-05-02T06:47:22;18.70;55.20
72905;DHT22;61048;52.162;4.516;2023-05-02T06:49:49;18.70;54.50
72905;DHT22;61048;52.162;4.516;2023-05-02T06:52:16;18.60;54.30
72905;DHT22;61048;52.162;4.516;2023-05-02T07:19:19;18.50;50.90
72905;DHT22;61048;52.162;4.516;2023-05-02T07:21:46;18.20;51.30
72905;DHT22;61048;52.162;4.516;2023-05-02T07:24:13;18.20;50.80
72905;DHT22;61048;52.162;4.516;2023-05-02T07:26:40;18.20;50.60
72905;DHT22;61048;52.162;4.516;2023-05-02T07:29:08;18.30;49.90
72905;DHT22;61048;52.162;4.516;2023-05-02T07:31:35;18.30;50.50
72905;DHT22;61048;52.162;4.516;2023-05-02T07:34:02;18.30;49.90
72905;DHT22;61048;52.162;4.516;2023-05-02T07:36:29;18.40;49.90
72905;DHT22;61048;52.162;4.516;2023-05-02T07:38:57;18.40;48.90
72905;DHT22;61048;52.162;4.516;2023-05-02T07:41:24;18.40;49.20
72905;DHT22;61048;52.162;4.516;2023-05-02T07:43:51;18.40;48.40
72905;DHT22;61048;52.162;4.516;2023-05-02T07:46:19;18.30;47.90
72905;DHT22;61048;52.162;4.516;2023-05-02T07:48:45;18.30;48.50
72905;DHT22;61048;52.162;4.516;2023-05-02T07:51:12;18.80;47.40
72905;DHT22;61048;52.162;4.516;2023-05-02T07:53:39;18.40;48.50
72905;DHT22;61048;52.162;4.516;2023-05-02T07:56:07;18.40;48.50
72905;DHT22;61048;52.162;4.516;2023-05-02T07:58:34;18.50;48.00
72905;DHT22;61048;52.162;4.516;2023-05-02T08:01:01;18.50;48.00
72905;DHT22;61048;52.162;4.516;2023-05-02T08:03:30;18.50;47.90
72905;DHT22;61048;52.162;4.516;2023-05-02T08:05:56;18.60;47.50
72905;DHT22;61048;52.162;4.516;2023-05-02T08:08:23;18.70;47.60
72905;DHT22;61048;52.162;4.516;2023-05-02T08:10:50;18.80;47.80
72905;DHT22;61048;52.162;4.516;2023-05-02T08:13:17;18.90;47.60
72905;DHT22;61048;52.162;4.516;2023-05-02T08:15:44;19.00;46.80
72905;DHT22;61048;52.162;4.516;2023-05-02T08:18:11;19.00;46.70
72905;DHT22;61048;52.162;4.516;2023-05-02T08:20:39;19.00;46.70
72905;DHT22;61048;52.162;4.516;2023-05-02T08:23:06;19.00;46.80
72905;DHT22;61048;52.162;4.516;2023-05-02T08:25:33;19.10;46.30
72905;DHT22;61048;52.162;4.516;2023-05-02T08:27:59;19.10;46.40
72905;DHT22;61048;52.162;4.516;2023-05-02T08:30:26;19.10;46.30
72905;DHT22;61048;52.162;4.516;2023-05-02T08:32:53;19.10;46.20
72905;DHT22;61048;52.162;4.516;2023-05-02T08:35:20;19.20;46.10
72905;DHT22;61048;52.162;4.516;2023-05-02T08:37:48;19.20;45.10
72905;DHT22;61048;52.162;4.516;2023-05-02T08:40:16;19.10;45.70
72905;DHT22;61048;52.162;4.516;2023-05-02T08:42:44;19.10;45.50
72905;DHT22;61048;52.162;4.516;2023-05-02T08:45:12;19.10;45.50
72905;DHT22;61048;52.162;4.516;2023-05-02T08:47:40;19.10;45.40
72905;DHT22;61048;52.162;4.516;2023-05-02T08:50:09;19.10;45.20
72905;DHT22;61048;52.162;4.516;2023-05-02T08:52:36;19.10;45.30
72905;DHT22;61048;52.162;4.516;2023-05-02T08:55:06;19.10;45.00
72905;DHT22;61048;52.162;4.516;2023-05-02T08:57:32;19.10;45.00
72905;DHT22;61048;52.162;4.516;2023-05-02T08:59:59;19.10;44.70
72905;DHT22;61048;52.162;4.516;2023-05-02T09:02:44;19.00;44.50
72905;DHT22;61048;52.162;4.516;2023-05-02T09:05:18;19.00;44.00
72905;DHT22;61048;52.162;4.516;2023-05-02T09:07:46;19.00;43.90
72905;DHT22;61048;52.162;4.516;2023-05-02T09:10:14;19.00;43.70
72905;DHT22;61048;52.162;4.516;2023-05-02T09:12:41;19.00;44.10
72905;DHT22;61048;52.162;4.516;2023-05-02T09:15:10;19.00;43.80
72905;DHT22;61048;52.162;4.516;2023-05-02T09:17:41;19.10;43.80
72905;DHT22;61048;52.162;4.516;2023-05-02T09:20:09;19.10;43.20
72905;DHT22;61048;52.162;4.516;2023-05-02T09:22:37;19.20;43.40
72905;DHT22;61048;52.162;4.516;2023-05-02T09:25:05;19.20;42.40
72905;DHT22;61048;52.162;4.516;2023-05-02T09:27:51;19.20;42.30
72905;DHT22;61048;52.162;4.516;2023-05-02T09:30:20;19.20;41.30
72905;DHT22;61048;52.162;4.516;2023-05-02T09:32:48;19.20;42.30
72905;DHT22;61048;52.162;4.516;2023-05-02T09:35:16;19.10;42.10
72905;DHT22;61048;52.162;4.516;2023-05-02T09:37:49;19.10;42.70
72905;DHT22;61048;52.162;4.516;2023-05-02T09:40:16;19.20;42.70
72905;DHT22;61048;52.162;4.516;2023-05-02T09:42:44;19.20;42.20
72905;DHT22;61048;52.162;4.516;2023-05-02T09:45:20;19.30;42.80
72905;DHT22;61048;52.162;4.516;2023-05-02T09:47:48;19.30;42.10
72905;DHT22;61048;52.162;4.516;2023-05-02T09:50:37;19.30;42.40
72905;DHT22;61048;52.162;4.516;2023-05-02T09:53:05;19.30;42.10
72905;DHT22;61048;52.162;4.516;2023-05-02T09:55:33;19.30;42.90
72905;DHT22;61048;52.162;4.516;2023-05-02T09:57:59;19.40;43.00
72905;DHT22;61048;52.162;4.516;2023-05-02T10:00:41;19.40;42.60
72905;DHT22;61048;52.162;4.516;2023-05-02T10:03:09;19.40;42.30
72905;DHT22;61048;52.162;4.516;2023-05-02T10:05:37;19.40;42.20
72905;DHT22;61048;52.162;4.516;2023-05-02T10:08:05;19.40;42.40
72905;DHT22;61048;52.162;4.516;2023-05-02T10:10:35;19.40;42.80
72905;DHT22;61048;52.162;4.516;2023-05-02T10:13:04;19.40;43.00
72905;DHT22;61048;52.162;4.516;2023-05-02T10:15:32;19.50;42.60
72905;DHT22;61048;52.162;4.516;2023-05-02T10:18:07;19.50;42.40
72905;DHT22;61048;52.162;4.516;2023-05-02T10:20:42;19.40;42.60
72905;DHT22;61048;52.162;4.516;2023-05-02T10:23:10;19.40;42.40
72905;DHT22;61048;52.162;4.516;2023-05-02T10:25:38;19.40;42.80
72905;DHT22;61048;52.162;4.516;2023-05-02T10:28:05;19.50;42.60
72905;DHT22;61048;52.162;4.516;2023-05-02T10:30:32;19.50;42.50
72905;DHT22;61048;52.162;4.516;2023-05-02T10:33:02;19.40;42.50
72905;DHT22;61048;52.162;4.516;2023-05-02T10:35:31;19.40;42.50
72905;DHT22;61048;52.162;4.516;2023-05-02T10:37:59;19.40;42.30
72905;DHT22;61048;52.162;4.516;2023-05-02T10:40:26;19.40;42.40
72905;DHT22;61048;52.162;4.516;2023-05-02T10:42:54;19.40;42.30
72905;DHT22;61048;52.162;4.516;2023-05-02T10:45:31;19.40;42.40
72905;DHT22;61048;52.162;4.516;2023-05-02T10:48:16;19.40;42.40
72905;DHT22;61048;52.162;4.516;2023-05-02T10:50:49;19.40;42.50
72905;DHT22;61048;52.162;4.516;2023-05-02T10:53:27;19.40;42.40
72905;DHT22;61048;52.162;4.516;2023-05-02T10:56:12;19.40;42.00
72905;DHT22;61048;52.162;4.516;2023-05-02T10:58:40;19.40;42.40
72905;DHT22;61048;52.162;4.516;2023-05-02T11:01:36;19.30;41.50
72905;DHT22;61048;52.162;4.516;2023-05-02T11:04:11;19.30;42.00
72905;DHT22;61048;52.162;4.516;2023-05-02T11:09:31;19.30;41.80
72905;DHT22;61048;52.162;4.516;2023-05-02T11:11:59;19.30;41.60
72905;DHT22;61048;52.162;4.516;2023-05-02T11:14:46;19.30;42.10
72905;DHT22;61048;52.162;4.516;2023-05-02T11:17:14;19.20;41.40
72905;DHT22;61048;52.162;4.516;2023-05-02T11:22:51;19.20;41.60
72905;DHT22;61048;52.162;4.516;2023-05-02T11:25:34;19.20;42.00
72905;DHT22;61048;52.162;4.516;2023-05-02T11:28:03;19.20;41.60
72905;DHT22;61048;52.162;4.516;2023-05-02T11:30:37;19.20;41.70
72905;DHT22;61048;52.162;4.516;2023-05-02T11:33:15;19.30;41.80
72905;DHT22;61048;52.162;4.516;2023-05-02T11:35:48;19.30;42.10
72905;DHT22;61048;52.162;4.516;2023-05-02T11:38:18;19.30;41.90
72905;DHT22;61048;52.162;4.516;2023-05-02T11:40:56;19.30;41.80
72905;DHT22;61048;52.162;4.516;2023-05-02T11:43:24;19.30;41.90
72905;DHT22;61048;52.162;4.516;2023-05-02T11:45:51;19.30;41.70
72905;DHT22;61048;52.162;4.516;2023-05-02T11:48:20;19.30;41.60
72905;DHT22;61048;52.162;4.516;2023-05-02T11:50:48;19.30;41.80
72905;DHT22;61048;52.162;4.516;2023-05-02T11:53:18;19.30;41.70
72905;DHT22;61048;52.162;4.516;2023-05-02T11:55:48;19.30;41.80
72905;DHT22;61048;52.162;4.516;2023-05-02T11:58:16;19.30;41.90
72905;DHT22;61048;52.162;4.516;2023-05-02T12:00:43;19.40;41.50
72905;DHT22;61048;52.162;4.516;2023-05-02T12:03:34;19.30;41.80
72905;DHT22;61048;52.162;4.516;2023-05-02T12:06:08;19.30;41.40
72905;DHT22;61048;52.162;4.516;2023-05-02T12:08:38;19.30;41.40
72905;DHT22;61048;52.162;4.516;2023-05-02T12:11:05;19.30;41.40
72905;DHT22;61048;52.162;4.516;2023-05-02T12:13:32;19.30;41.50
72905;DHT22;61048;52.162;4.516;2023-05-02T12:15:59;19.30;41.60
72905;DHT22;61048;52.162;4.516;2023-05-02T12:18:27;19.30;41.50
72905;DHT22;61048;52.162;4.516;2023-05-02T12:20:55;19.30;41.50
72905;DHT22;61048;52.162;4.516;2023-05-02T12:23:23;19.30;41.50
72905;DHT22;61048;52.162;4.516;2023-05-02T12:25:53;19.30;41.40
72905;DHT22;61048;52.162;4.516;2023-05-02T12:28:20;19.30;41.40
72905;DHT22;61048;52.162;4.516;2023-05-02T12:30:49;19.30;41.30
72905;DHT22;61048;52.162;4.516;2023-05-02T12:33:17;19.30;41.40
72905;DHT22;61048;52.162;4.516;2023-05-02T12:35:44;19.30;41.50
72905;DHT22;61048;52.162;4.516;2023-05-02T12:38:14;19.30;41.40
72905;DHT22;61048;52.162;4.516;2023-05-02T12:40:48;19.30;41.60
72905;DHT22;61048;52.162;4.516;2023-05-02T12:43:18;19.30;41.50
72905;DHT22;61048;52.162;4.516;2023-05-02T12:45:45;19.30;41.40
72905;DHT22;61048;52.162;4.516;2023-05-02T12:48:21;19.30;41.40
72905;DHT22;61048;52.162;4.516;2023-05-02T12:50:48;19.30;41.20
72905;DHT22;61048;52.162;4.516;2023-05-02T12:53:15;19.30;41.30
72905;DHT22;61048;52.162;4.516;2023-05-02T12:55:42;19.30;41.40
72905;DHT22;61048;52.162;4.516;2023-05-02T12:58:10;19.40;41.40
72905;DHT22;61048;52.162;4.516;2023-05-02T13:00:40;19.40;41.50
72905;DHT22;61048;52.162;4.516;2023-05-02T13:03:08;19.40;41.00
72905;DHT22;61048;52.162;4.516;2023-05-02T13:05:36;19.30;41.20
72905;DHT22;61048;52.162;4.516;2023-05-02T13:08:03;19.30;41.30
72905;DHT22;61048;52.162;4.516;2023-05-02T13:10:30;19.30;41.30
72905;DHT22;61048;52.162;4.516;2023-05-02T13:12:57;19.30;40.70
72905;DHT22;61048;52.162;4.516;2023-05-02T13:15:24;19.30;41.50
72905;DHT22;61048;52.162;4.516;2023-05-02T13:17:52;19.30;41.50
72905;DHT22;61048;52.162;4.516;2023-05-02T13:20:19;19.30;41.40
72905;DHT22;61048;52.162;4.516;2023-05-02T13:22:46;19.40;41.40
72905;DHT22;61048;52.162;4.516;2023-05-02T13:25:13;19.40;41.30
72905;DHT22;61048;52.162;4.516;2023-05-02T13:27:40;19.50;41.00
72905;DHT22;61048;52.162;4.516;2023-05-02T13:30:08;19.40;41.00
72905;DHT22;61048;52.162;4.516;2023-05-02T13:32:36;19.40;40.80
72905;DHT22;61048;52.162;4.516;2023-05-02T13:35:06;19.40;40.80
72905;DHT22;61048;52.162;4.516;2023-05-02T13:37:33;19.40;41.10
72905;DHT22;61048;52.162;4.516;2023-05-02T13:40:00;19.40;41.10
72905;DHT22;61048;52.162;4.516;2023-05-02T13:42:27;19.40;41.00
72905;DHT22;61048;52.162;4.516;2023-05-02T13:44:54;19.40;41.00
72905;DHT22;61048;52.162;4.516;2023-05-02T13:47:20;19.50;41.30
72905;DHT22;61048;52.162;4.516;2023-05-02T13:49:47;19.50;41.20
72905;DHT22;61048;52.162;4.516;2023-05-02T13:52:15;19.50;41.20
72905;DHT22;61048;52.162;4.516;2023-05-02T13:54:42;19.60;41.00
72905;DHT22;61048;52.162;4.516;2023-05-02T13:57:09;19.50;40.90
72905;DHT22;61048;52.162;4.516;2023-05-02T13:59:36;19.50;41.00
72905;DHT22;61048;52.162;4.516;2023-05-02T14:02:03;19.50;40.90
72905;DHT22;61048;52.162;4.516;2023-05-02T14:04:30;19.50;40.90
72905;DHT22;61048;52.162;4.516;2023-05-02T14:06:57;19.50;41.00
72905;DHT22;61048;52.162;4.516;2023-05-02T14:09:25;19.50;41.00
72905;DHT22;61048;52.162;4.516;2023-05-02T14:11:52;19.60;40.80
72905;DHT22;61048;52.162;4.516;2023-05-02T14:14:20;19.60;41.10
72905;DHT22;61048;52.162;4.516;2023-05-02T14:16:46;19.60;41.10
72905;DHT22;61048;52.162;4.516;2023-05-02T14:19:13;19.60;41.10
72905;DHT22;61048;52.162;4.516;2023-05-02T14:21:40;19.70;41.00
72905;DHT22;61048;52.162;4.516;2023-05-02T14:24:07;19.70;40.80
72905;DHT22;61048;52.162;4.516;2023-05-02T14:26:35;19.70;40.90
72905;DHT22;61048;52.162;4.516;2023-05-02T14:29:02;19.70;40.70
72905;DHT22;61048;52.162;4.516;2023-05-02T14:31:29;19.70;40.70
72905;DHT22;61048;52.162;4.516;2023-05-02T14:33:56;19.70;40.70
72905;DHT22;61048;52.162;4.516;2023-05-02T14:36:22;19.70;41.00
72905;DHT22;61048;52.162;4.516;2023-05-02T14:38:49;19.80;41.00
72905;DHT22;61048;52.162;4.516;2023-05-02T14:41:16;19.80;41.00
72905;DHT22;61048;52.162;4.516;2023-05-02T14:43:45;19.80;40.90
72905;DHT22;61048;52.162;4.516;2023-05-02T14:46:12;19.80;41.00
72905;DHT22;61048;52.162;4.516;2023-05-02T14:48:38;19.80;40.80
72905;DHT22;61048;52.162;4.516;2023-05-02T14:51:05;19.80;41.00
72905;DHT22;61048;52.162;4.516;2023-05-02T14:53:32;19.80;40.50
72905;DHT22;61048;52.162;4.516;2023-05-02T14:55:59;19.70;40.60
72905;DHT22;61048;52.162;4.516;2023-05-02T14:58:26;19.70;40.50
72905;DHT22;61048;52.162;4.516;2023-05-02T15:00:54;19.70;40.60
72905;DHT22;61048;52.162;4.516;2023-05-02T15:03:21;19.70;40.40
72905;DHT22;61048;52.162;4.516;2023-05-02T15:05:48;19.70;40.30
72905;DHT22;61048;52.162;4.516;2023-05-02T15:08:15;19.70;40.40
72905;DHT22;61048;52.162;4.516;2023-05-02T15:10:42;19.70;40.60
72905;DHT22;61048;52.162;4.516;2023-05-02T15:13:09;19.70;40.70
72905;DHT22;61048;52.162;4.516;2023-05-02T15:15:36;19.70;40.40
72905;DHT22;61048;52.162;4.516;2023-05-02T15:18:04;19.70;40.40
72905;DHT22;61048;52.162;4.516;2023-05-02T15:20:31;19.70;40.50
72905;DHT22;61048;52.162;4.516;2023-05-02T15:22:58;19.70;40.50
72905;DHT22;61048;52.162;4.516;2023-05-02T15:25:28;19.70;40.20
72905;DHT22;61048;52.162;4.516;2023-05-02T15:27:56;19.70;40.50
72905;DHT22;61048;52.162;4.516;2023-05-02T15:30:22;19.70;40.50
72905;DHT22;61048;52.162;4.516;2023-05-02T15:32:49;19.70;40.40
72905;DHT22;61048;52.162;4.516;2023-05-02T15:35:18;19.70;40.40
72905;DHT22;61048;52.162;4.516;2023-05-02T15:37:44;19.70;40.20
72905;DHT22;61048;52.162;4.516;2023-05-02T15:40:12;19.60;40.20
72905;DHT22;61048;52.162;4.516;2023-05-02T15:42:39;19.60;40.40
72905;DHT22;61048;52.162;4.516;2023-05-02T15:45:07;19.60;40.10
72905;DHT22;61048;52.162;4.516;2023-05-02T15:47:36;19.60;40.20
72905;DHT22;61048;52.162;4.516;2023-05-02T15:50:03;19.60;40.10
72905;DHT22;61048;52.162;4.516;2023-05-02T15:52:32;19.60;40.00
72905;DHT22;61048;52.162;4.516;2023-05-02T15:54:58;19.60;40.20
72905;DHT22;61048;52.162;4.516;2023-05-02T15:57:26;19.60;40.40
72905;DHT22;61048;52.162;4.516;2023-05-02T15:59:53;19.60;40.30
72905;DHT22;61048;52.162;4.516;2023-05-02T16:02:20;19.50;40.20
72905;DHT22;61048;52.162;4.516;2023-05-02T16:04:47;19.60;40.20
72905;DHT22;61048;52.162;4.516;2023-05-02T16:07:14;19.60;40.20
72905;DHT22;61048;52.162;4.516;2023-05-02T16:09:42;19.60;40.20
72905;DHT22;61048;52.162;4.516;2023-05-02T16:12:09;19.60;40.30
72905;DHT22;61048;52.162;4.516;2023-05-02T16:14:36;19.60;40.40
72905;DHT22;61048;52.162;4.516;2023-05-02T16:17:03;19.60;40.40
72905;DHT22;61048;52.162;4.516;2023-05-02T16:19:30;19.60;40.30
72905;DHT22;61048;52.162;4.516;2023-05-02T16:21:56;19.50;40.40
72905;DHT22;61048;52.162;4.516;2023-05-02T16:24:23;19.50;40.30
72905;DHT22;61048;52.162;4.516;2023-05-02T16:26:51;19.50;40.20
72905;DHT22;61048;52.162;4.516;2023-05-02T16:29:18;19.50;40.30
72905;DHT22;61048;52.162;4.516;2023-05-02T16:31:45;19.50;40.30
72905;DHT22;61048;52.162;4.516;2023-05-02T16:34:12;19.50;40.30
72905;DHT22;61048;52.162;4.516;2023-05-02T16:36:39;19.50;40.20
72905;DHT22;61048;52.162;4.516;2023-05-02T16:39:06;19.50;40.20
72905;DHT22;61048;52.162;4.516;2023-05-02T16:41:33;19.50;40.30
72905;DHT22;61048;52.162;4.516;2023-05-02T16:44:02;19.40;40.20
72905;DHT22;61048;52.162;4.516;2023-05-02T16:46:30;19.40;40.30
72905;DHT22;61048;52.162;4.516;2023-05-02T16:48:57;19.40;39.60
72905;DHT22;61048;52.162;4.516;2023-05-02T16:51:24;19.30;39.70
72905;DHT22;61048;52.162;4.516;2023-05-02T16:53:50;19.20;40.10
72905;DHT22;61048;52.162;4.516;2023-05-02T16:56:17;19.20;40.00
72905;DHT22;61048;52.162;4.516;2023-05-02T16:58:44;19.20;40.10
72905;DHT22;61048;52.162;4.516;2023-05-02T17:01:12;19.20;40.20
72905;DHT22;61048;52.162;4.516;2023-05-02T17:03:39;19.20;40.20
72905;DHT22;61048;52.162;4.516;2023-05-02T17:06:07;19.20;40.40
72905;DHT22;61048;52.162;4.516;2023-05-02T17:08:33;19.20;40.40
72905;DHT22;61048;52.162;4.516;2023-05-02T17:11:01;19.20;40.40
72905;DHT22;61048;52.162;4.516;2023-05-02T17:13:27;19.20;40.40
72905;DHT22;61048;52.162;4.516;2023-05-02T17:15:54;19.20;40.40
72905;DHT22;61048;52.162;4.516;2023-05-02T17:18:23;19.20;40.30
72905;DHT22;61048;52.162;4.516;2023-05-02T17:20:51;19.20;40.50
72905;DHT22;61048;52.162;4.516;2023-05-02T17:23:19;19.10;40.40
72905;DHT22;61048;52.162;4.516;2023-05-02T17:25:46;19.10;40.60
72905;DHT22;61048;52.162;4.516;2023-05-02T17:28:13;19.10;40.40
72905;DHT22;61048;52.162;4.516;2023-05-02T17:30:40;19.00;40.60
72905;DHT22;61048;52.162;4.516;2023-05-02T17:33:07;19.00;40.30
72905;DHT22;61048;52.162;4.516;2023-05-02T17:35:36;19.00;40.70
72905;DHT22;61048;52.162;4.516;2023-05-02T17:38:03;19.00;40.70
72905;DHT22;61048;52.162;4.516;2023-05-02T17:40:30;19.00;40.50
72905;DHT22;61048;52.162;4.516;2023-05-02T17:42:57;19.00;40.50
72905;DHT22;61048;52.162;4.516;2023-05-02T17:45:24;19.00;40.60
72905;DHT22;61048;52.162;4.516;2023-05-02T17:47:52;18.90;40.60
72905;DHT22;61048;52.162;4.516;2023-05-02T17:50:19;19.00;40.70
72905;DHT22;61048;52.162;4.516;2023-05-02T17:52:48;18.90;40.70
72905;DHT22;61048;52.162;4.516;2023-05-02T17:55:15;18.90;40.70
72905;DHT22;61048;52.162;4.516;2023-05-02T17:57:42;18.90;40.50
72905;DHT22;61048;52.162;4.516;2023-05-02T18:00:09;18.90;40.70
72905;DHT22;61048;52.162;4.516;2023-05-02T18:02:36;18.90;40.60
72905;DHT22;61048;52.162;4.516;2023-05-02T18:05:04;18.80;40.70
72905;DHT22;61048;52.162;4.516;2023-05-02T18:07:34;18.80;40.80
72905;DHT22;61048;52.162;4.516;2023-05-02T18:10:02;18.70;40.80
72905;DHT22;61048;52.162;4.516;2023-05-02T18:12:29;18.70;40.70
72905;DHT22;61048;52.162;4.516;2023-05-02T18:14:57;18.70;40.80
72905;DHT22;61048;52.162;4.516;2023-05-02T18:17:23;18.70;40.80
72905;DHT22;61048;52.162;4.516;2023-05-02T18:19:51;18.60;40.80
72905;DHT22;61048;52.162;4.516;2023-05-02T18:22:18;18.60;41.00
72905;DHT22;61048;52.162;4.516;2023-05-02T18:24:46;18.60;40.90
72905;DHT22;61048;52.162;4.516;2023-05-02T18:27:15;18.60;40.90
72905;DHT22;61048;52.162;4.516;2023-05-02T18:29:42;18.60;41.00
72905;DHT22;61048;52.162;4.516;2023-05-02T18:32:09;18.60;41.00
72905;DHT22;61048;52.162;4.516;2023-05-02T18:34:36;18.60;41.00
72905;DHT22;61048;52.162;4.516;2023-05-02T18:37:02;18.50;40.90
72905;DHT22;61048;52.162;4.516;2023-05-02T18:39:29;18.50;41.00
72905;DHT22;61048;52.162;4.516;2023-05-02T18:41:57;18.50;41.00
72905;DHT22;61048;52.162;4.516;2023-05-02T18:44:25;18.40;41.10
72905;DHT22;61048;52.162;4.516;2023-05-02T18:46:52;18.40;41.10
72905;DHT22;61048;52.162;4.516;2023-05-02T18:49:19;18.40;41.10
72905;DHT22;61048;52.162;4.516;2023-05-02T18:51:46;18.40;41.10
72905;DHT22;61048;52.162;4.516;2023-05-02T18:54:13;18.30;41.00
72905;DHT22;61048;52.162;4.516;2023-05-02T18:56:40;18.30;41.00
72905;DHT22;61048;52.162;4.516;2023-05-02T18:59:07;18.30;41.10
72905;DHT22;61048;52.162;4.516;2023-05-02T19:01:35;18.30;41.20
72905;DHT22;61048;52.162;4.516;2023-05-02T19:04:02;18.30;41.30
72905;DHT22;61048;52.162;4.516;2023-05-02T19:06:29;18.30;41.20
72905;DHT22;61048;52.162;4.516;2023-05-02T19:08:56;18.20;41.30
72905;DHT22;61048;52.162;4.516;2023-05-02T19:11:23;18.20;41.30
72905;DHT22;61048;52.162;4.516;2023-05-02T19:13:50;18.20;41.30
72905;DHT22;61048;52.162;4.516;2023-05-02T19:16:17;18.10;41.40
72905;DHT22;61048;52.162;4.516;2023-05-02T19:18:47;18.10;41.50
72905;DHT22;61048;52.162;4.516;2023-05-02T19:21:16;18.10;41.50
72905;DHT22;61048;52.162;4.516;2023-05-02T19:23:43;18.10;41.60
72905;DHT22;61048;52.162;4.516;2023-05-02T19:26:11;18.10;41.60
72905;DHT22;61048;52.162;4.516;2023-05-02T19:28:38;18.00;41.30
72905;DHT22;61048;52.162;4.516;2023-05-02T19:31:09;17.90;42.60
72905;DHT22;61048;52.162;4.516;2023-05-02T19:33:36;17.90;42.60
72905;DHT22;61048;52.162;4.516;2023-05-02T19:36:04;18.00;42.30
72905;DHT22;61048;52.162;4.516;2023-05-02T19:38:32;18.00;42.30
72905;DHT22;61048;52.162;4.516;2023-05-02T19:40:59;18.00;42.30
72905;DHT22;61048;52.162;4.516;2023-05-02T19:43:26;18.00;42.20
72905;DHT22;61048;52.162;4.516;2023-05-02T19:45:53;18.00;42.40
72905;DHT22;61048;52.162;4.516;2023-05-02T19:48:21;18.00;42.30
72905;DHT22;61048;52.162;4.516;2023-05-02T19:50:48;18.00;42.30
72905;DHT22;61048;52.162;4.516;2023-05-02T19:53:16;18.00;42.40
72905;DHT22;61048;52.162;4.516;2023-05-02T19:55:43;18.00;42.30
72905;DHT22;61048;52.162;4.516;2023-05-02T19:58:10;18.00;42.40
72905;DHT22;61048;52.162;4.516;2023-05-02T20:00:37;18.00;42.40
72905;DHT22;61048;52.162;4.516;2023-05-02T20:03:05;17.90;42.40
72905;DHT22;61048;52.162;4.516;2023-05-02T20:05:32;17.90;42.40
72905;DHT22;61048;52.162;4.516;2023-05-02T20:07:59;17.90;42.50
72905;DHT22;61048;52.162;4.516;2023-05-02T20:10:27;17.90;42.40
72905;DHT22;61048;52.162;4.516;2023-05-02T20:12:54;17.90;42.50
72905;DHT22;61048;52.162;4.516;2023-05-02T20:15:21;17.90;42.50
72905;DHT22;61048;52.162;4.516;2023-05-02T20:17:48;17.90;42.50
72905;DHT22;61048;52.162;4.516;2023-05-02T20:20:15;17.90;42.60
72905;DHT22;61048;52.162;4.516;2023-05-02T20:22:42;17.90;42.60
72905;DHT22;61048;52.162;4.516;2023-05-02T20:25:09;17.90;42.50
72905;DHT22;61048;52.162;4.516;2023-05-02T20:27:38;17.80;42.50
72905;DHT22;61048;52.162;4.516;2023-05-02T20:30:06;17.80;42.70
72905;DHT22;61048;52.162;4.516;2023-05-02T20:32:34;17.80;42.60
72905;DHT22;61048;52.162;4.516;2023-05-02T20:35:01;17.80;42.50
72905;DHT22;61048;52.162;4.516;2023-05-02T20:37:28;17.70;42.50
72905;DHT22;61048;52.162;4.516;2023-05-02T20:39:55;17.70;42.60
72905;DHT22;61048;52.162;4.516;2023-05-02T20:42:23;17.70;42.60
72905;DHT22;61048;52.162;4.516;2023-05-02T20:44:55;17.70;42.60
72905;DHT22;61048;52.162;4.516;2023-05-02T20:47:24;17.70;42.60
72905;DHT22;61048;52.162;4.516;2023-05-02T20:49:52;17.60;42.70
72905;DHT22;61048;52.162;4.516;2023-05-02T20:52:19;17.60;42.70
72905;DHT22;61048;52.162;4.516;2023-05-02T20:54:46;17.60;42.70
72905;DHT22;61048;52.162;4.516;2023-05-02T20:57:14;17.60;42.80
72905;DHT22;61048;52.162;4.516;2023-05-02T20:59:42;17.60;42.80
72905;DHT22;61048;52.162;4.516;2023-05-02T21:02:10;17.50;42.90
72905;DHT22;61048;52.162;4.516;2023-05-02T21:04:37;17.50;42.90
72905;DHT22;61048;52.162;4.516;2023-05-02T21:07:05;17.50;42.80
72905;DHT22;61048;52.162;4.516;2023-05-02T21:09:32;17.50;43.00
72905;DHT22;61048;52.162;4.516;2023-05-02T21:11:59;17.50;43.30
72905;DHT22;61048;52.162;4.516;2023-05-02T21:14:27;17.50;43.10
72905;DHT22;61048;52.162;4.516;2023-05-02T21:16:53;17.50;43.40
72905;DHT22;61048;52.162;4.516;2023-05-02T21:19:22;17.50;43.20
72905;DHT22;61048;52.162;4.516;2023-05-02T21:21:48;17.60;43.30
72905;DHT22;61048;52.162;4.516;2023-05-02T21:24:15;17.60;43.30
72905;DHT22;61048;52.162;4.516;2023-05-02T21:26:42;17.60;44.00
72905;DHT22;61048;52.162;4.516;2023-05-02T21:29:09;17.80;43.60
72905;DHT22;61048;52.162;4.516;2023-05-02T21:31:36;17.80;43.60
72905;DHT22;61048;52.162;4.516;2023-05-02T21:34:03;17.80;43.80
72905;DHT22;61048;52.162;4.516;2023-05-02T21:36:32;17.70;43.70
72905;DHT22;61048;52.162;4.516;2023-05-02T21:38:59;17.70;43.80
72905;DHT22;61048;52.162;4.516;2023-05-02T21:41:26;17.70;43.80
72905;DHT22;61048;52.162;4.516;2023-05-02T21:43:52;17.70;43.90
72905;DHT22;61048;52.162;4.516;2023-05-02T21:46:19;17.70;43.70
72905;DHT22;61048;52.162;4.516;2023-05-02T21:48:46;17.70;44.00
72905;DHT22;61048;52.162;4.516;2023-05-02T21:51:13;17.70;43.90
72905;DHT22;61048;52.162;4.516;2023-05-02T21:53:41;17.70;43.90
72905;DHT22;61048;52.162;4.516;2023-05-02T21:56:09;17.70;44.70
72905;DHT22;61048;52.162;4.516;2023-05-02T21:58:36;17.70;44.20
72905;DHT22;61048;52.162;4.516;2023-05-02T22:01:03;17.70;44.60
72905;DHT22;61048;52.162;4.516;2023-05-02T22:03:30;17.70;44.30
72905;DHT22;61048;52.162;4.516;2023-05-02T22:05:59;17.70;44.50
72905;DHT22;61048;52.162;4.516;2023-05-02T22:08:30;17.70;44.50
72905;DHT22;61048;52.162;4.516;2023-05-02T22:10:58;17.70;44.30
72905;DHT22;61048;52.162;4.516;2023-05-02T22:13:25;17.70;44.30
72905;DHT22;61048;52.162;4.516;2023-05-02T22:15:53;17.70;44.40
72905;DHT22;61048;52.162;4.516;2023-05-02T22:18:19;17.70;44.50
72905;DHT22;61048;52.162;4.516;2023-05-02T22:20:46;17.70;44.60
72905;DHT22;61048;52.162;4.516;2023-05-02T22:23:16;17.70;44.60
72905;DHT22;61048;52.162;4.516;2023-05-02T22:25:43;17.70;44.50
72905;DHT22;61048;52.162;4.516;2023-05-02T22:28:12;17.70;44.70
72905;DHT22;61048;52.162;4.516;2023-05-02T22:30:41;17.70;44.50
72905;DHT22;61048;52.162;4.516;2023-05-02T22:33:08;17.70;44.60
72905;DHT22;61048;52.162;4.516;2023-05-02T22:35:35;17.60;44.50
72905;DHT22;61048;52.162;4.516;2023-05-02T22:38:02;17.70;44.80
72905;DHT22;61048;52.162;4.516;2023-05-02T22:40:30;17.60;44.60
72905;DHT22;61048;52.162;4.516;2023-05-02T22:42:57;17.70;44.60